Time;durP1;ratioP1;P1;durP2;ratioP2;P2;SDS_P1;SDS_P2;PMS_P1;PMS_P2;Temp;Humidity;BMP_temperature;BMP_pressure;BME280_temperature;BME280_humidity;BME280_pressure;Samples;Min_cycle;Max_cycle;Signal;HPM_P1;HPM_P2
2022/06/26 00:01:14;;;;;;;10.80;7.18;;;;;;;;;;5023252;28;20037;-59
2022/06/26 00:03:40;;;;;;;13.52;6.55;;;;;;;;;;5023596;28;20050;-59
2022/06/26 00:06:06;;;;;;;10.45;6.55;;;;;;;;;;5027988;28;20051;-58
2022/06/26 00:08:32;;;;;;;11.50;6.93;;;;;;;;;;5027307;28;20131;-58
2022/06/26 00:10:58;;;;;;;16.25;6.57;;;;;;;;;;5027298;28;20495;-58
2022/06/26 00:13:25;;;;;;;10.10;6.35;;;;;;;;;;5025959;28;20866;-58
2022/06/26 00:15:51;;;;;;;8.55;6.35;;;;;;;;;;5026983;28;20060;-58
2022/06/26 00:18:17;;;;;;;11.85;7.10;;;;;;;;;;5027175;28;20083;-58
2022/06/26 00:20:43;;;;;;;9.77;7.43;;;;;;;;;;5027004;28;20041;-58
2022/06/26 00:23:09;;;;;;;10.18;6.97;;;;;;;;;;5027540;28;20495;-58
2022/06/26 00:25:36;;;;;;;10.88;7.10;;;;;;;;;;5027300;28;20041;-58
2022/06/26 00:28:02;;;;;;;10.27;7.00;;;;;;;;;;5004359;28;20514;-59
2022/06/26 00:30:28;;;;;;;8.48;6.60;;;;;;;;;;5008813;28;20375;-58
2022/06/26 00:32:54;;;;;;;7.97;5.70;;;;;;;;;;5026758;28;20041;-58
2022/06/26 00:35:20;;;;;;;12.88;6.30;;;;;;;;;;5027044;28;20045;-58
2022/06/26 00:37:48;;;;;;;13.70;7.13;;;;;;;;;;5026799;28;20037;-58
2022/06/26 00:40:14;;;;;;;9.82;7.05;;;;;;;;;;5026080;28;20376;-59
2022/06/26 00:42:40;;;;;;;8.73;6.60;;;;;;;;;;5025819;28;20124;-59
2022/06/26 00:45:07;;;;;;;11.25;6.80;;;;;;;;;;5026641;28;20150;-58
2022/06/26 00:47:33;;;;;;;14.25;7.28;;;;;;;;;;5008735;28;20049;-58
2022/06/26 00:50:00;;;;;;;9.70;7.28;;;;;;;;;;5026431;28;20463;-58
2022/06/26 00:52:27;;;;;;;11.93;7.28;;;;;;;;;;5026596;28;20040;-58
2022/06/26 00:54:54;;;;;;;9.77;7.53;;;;;;;;;;5026450;28;20049;-58
2022/06/26 00:57:21;;;;;;;12.55;8.15;;;;;;;;;;5025512;28;20042;-58
2022/06/26 00:59:47;;;;;;;11.15;8.18;;;;;;;;;;5025541;28;20045;-59
2022/06/26 01:02:14;;;;;;;18.85;8.77;;;;;;;;;;5026456;28;20048;-59
2022/06/26 01:04:40;;;;;;;12.38;8.40;;;;;;;;;;5026602;28;20037;-59
2022/06/26 01:07:06;;;;;;;15.50;10.25;;;;;;;;;;5027072;28;20052;-58
2022/06/26 01:09:33;;;;;;;14.18;9.35;;;;;;;;;;5025953;28;20128;-58
2022/06/26 01:12:00;;;;;;;17.35;9.75;;;;;;;;;;5024968;28;20057;-58
2022/06/26 01:14:26;;;;;;;12.70;9.93;;;;;;;;;;5025962;28;20049;-58
2022/06/26 01:16:52;;;;;;;12.40;9.55;;;;;;;;;;5025243;28;20045;-58
2022/06/26 01:19:20;;;;;;;14.88;9.80;;;;;;;;;;5023648;28;20087;-58
2022/06/26 01:21:46;;;;;;;13.80;9.82;;;;;;;;;;5026324;28;20037;-58
2022/06/26 01:24:14;;;;;;;14.60;8.60;;;;;;;;;;5025877;28;20041;-59
2022/06/26 01:26:41;;;;;;;18.23;8.32;;;;;;;;;;5020829;28;20470;-59
2022/06/26 01:29:07;;;;;;;14.18;9.95;;;;;;;;;;5025775;28;20111;-58
2022/06/26 01:31:34;;;;;;;14.90;9.20;;;;;;;;;;5025791;28;20045;-58
2022/06/26 01:34:04;;;;;;;13.60;9.00;;;;;;;;;;5008049;28;20509;-58
2022/06/26 01:36:31;;;;;;;11.65;9.13;;;;;;;;;;5025833;28;20510;-58
2022/06/26 01:38:57;;;;;;;16.38;8.20;;;;;;;;;;5007622;28;20057;-58
2022/06/26 01:41:23;;;;;;;14.40;8.77;;;;;;;;;;5024400;28;20075;-59
2022/06/26 01:43:49;;;;;;;14.70;9.27;;;;;;;;;;5025855;28;20045;-58
2022/06/26 01:46:16;;;;;;;12.68;8.82;;;;;;;;;;5023506;28;20045;-58
2022/06/26 01:48:42;;;;;;;12.48;9.05;;;;;;;;;;5025551;28;20037;-59
2022/06/26 01:51:09;;;;;;;11.50;8.57;;;;;;;;;;5021799;28;20049;-58
2022/06/26 01:53:35;;;;;;;15.10;8.60;;;;;;;;;;5007405;28;20042;-58
2022/06/26 01:56:02;;;;;;;16.88;8.93;;;;;;;;;;4990497;28;20137;-58
2022/06/26 01:58:28;;;;;;;14.23;9.43;;;;;;;;;;5024998;28;20120;-58
2022/06/26 02:00:55;;;;;;;17.17;9.43;;;;;;;;;;5024519;28;20049;-59
2022/06/26 02:03:22;;;;;;;16.33;8.80;;;;;;;;;;5025214;28;20110;-58
2022/06/26 02:05:48;;;;;;;16.02;9.20;;;;;;;;;;5025210;28;20045;-58
2022/06/26 02:08:14;;;;;;;14.23;10.07;;;;;;;;;;5024477;28;20041;-58
2022/06/26 02:13:36;;;;;;;20.30;9.57;;;;;;;;;;5024596;28;20123;-59
2022/06/26 02:16:11;;;;;;;19.73;9.93;;;;;;;;;;5024541;28;20546;-58
2022/06/26 02:18:38;;;;;;;18.25;10.45;;;;;;;;;;5007096;28;20540;-59
2022/06/26 02:21:05;;;;;;;14.25;9.02;;;;;;;;;;5024747;28;20415;-58
2022/06/26 02:23:31;;;;;;;18.95;10.63;;;;;;;;;;5024727;28;20037;-58
2022/06/26 02:25:57;;;;;;;13.45;9.27;;;;;;;;;;5024173;28;20059;-59
2022/06/26 02:28:24;;;;;;;16.10;9.93;;;;;;;;;;5023789;28;20041;-59
2022/06/26 02:30:50;;;;;;;16.60;9.90;;;;;;;;;;5024481;28;20132;-59
2022/06/26 02:33:16;;;;;;;11.80;9.13;;;;;;;;;;5024482;28;20080;-59
2022/06/26 02:35:42;;;;;;;13.93;9.73;;;;;;;;;;5020369;28;20044;-59
2022/06/26 02:38:09;;;;;;;13.55;9.60;;;;;;;;;;5025101;28;20049;-58
2022/06/26 02:40:35;;;;;;;19.50;9.52;;;;;;;;;;5024717;28;20037;-58
2022/06/26 02:43:01;;;;;;;15.00;8.98;;;;;;;;;;5005815;28;20100;-58
2022/06/26 02:45:27;;;;;;;13.95;9.27;;;;;;;;;;5024199;28;20053;-59
2022/06/26 02:47:53;;;;;;;15.18;9.10;;;;;;;;;;5024489;28;20037;-58
2022/06/26 02:50:20;;;;;;;14.55;9.15;;;;;;;;;;5024345;28;20487;-59
2022/06/26 02:52:46;;;;;;;10.20;8.40;;;;;;;;;;5024743;28;20043;-58
2022/06/26 02:55:12;;;;;;;14.73;9.10;;;;;;;;;;5023808;28;20120;-58
2022/06/26 02:57:39;;;;;;;12.30;9.30;;;;;;;;;;5023337;28;20046;-59
2022/06/26 03:00:05;;;;;;;13.43;8.77;;;;;;;;;;5026475;28;20056;-59
2022/06/26 03:02:32;;;;;;;12.63;8.10;;;;;;;;;;5024332;28;20043;-58
2022/06/26 03:04:58;;;;;;;12.35;8.38;;;;;;;;;;5030258;28;20041;-58
2022/06/26 03:07:24;;;;;;;10.25;8.27;;;;;;;;;;5027141;28;20037;-59
2022/06/26 03:09:50;;;;;;;14.10;8.30;;;;;;;;;;5027894;28;20041;-58
2022/06/26 03:12:16;;;;;;;13.65;8.43;;;;;;;;;;5023281;28;20547;-59
2022/06/26 03:14:42;;;;;;;15.82;8.25;;;;;;;;;;5028735;28;20098;-58
2022/06/26 03:17:08;;;;;;;11.30;7.25;;;;;;;;;;5025276;28;20490;-58
2022/06/26 03:19:35;;;;;;;10.57;8.05;;;;;;;;;;5028055;28;20114;-58
2022/06/26 03:22:01;;;;;;;12.85;7.72;;;;;;;;;;5008734;28;20446;-58
2022/06/26 03:24:27;;;;;;;14.70;7.78;;;;;;;;;;5009882;28;20546;-58
2022/06/26 03:26:53;;;;;;;13.13;7.20;;;;;;;;;;5027799;28;20033;-58
2022/06/26 03:29:19;;;;;;;11.02;7.30;;;;;;;;;;5023465;28;20049;-57
2022/06/26 03:31:45;;;;;;;9.13;6.25;;;;;;;;;;5028843;28;20033;-59
2022/06/26 03:34:12;;;;;;;12.75;6.15;;;;;;;;;;5025135;28;20045;-59
2022/06/26 03:36:38;;;;;;;7.75;5.80;;;;;;;;;;5028735;28;20037;-58
2022/06/26 03:39:04;;;;;;;11.10;5.57;;;;;;;;;;5026458;28;20045;-58
2022/06/26 03:41:30;;;;;;;9.48;5.07;;;;;;;;;;5027598;28;20713;-58
2022/06/26 03:43:57;;;;;;;6.45;4.82;;;;;;;;;;5033106;28;20503;-58
2022/06/26 03:46:23;;;;;;;8.30;4.97;;;;;;;;;;5028175;28;20538;-58
2022/06/26 03:48:49;;;;;;;7.60;4.57;;;;;;;;;;5030167;28;20099;-58
2022/06/26 03:51:15;;;;;;;8.25;4.35;;;;;;;;;;5029080;28;20483;-58
2022/06/26 03:53:41;;;;;;;6.63;4.18;;;;;;;;;;5028672;28;20500;-58
2022/06/26 03:56:07;;;;;;;6.72;3.95;;;;;;;;;;5031248;28;20037;-58
2022/06/26 03:58:34;;;;;;;4.80;3.95;;;;;;;;;;5027835;28;20041;-58
2022/06/26 04:01:00;;;;;;;7.38;3.78;;;;;;;;;;5033134;28;20744;-58
2022/06/26 04:03:26;;;;;;;7.38;3.75;;;;;;;;;;5028296;28;20073;-58
2022/06/26 04:05:52;;;;;;;7.07;3.50;;;;;;;;;;5030514;28;20057;-58
2022/06/26 04:08:19;;;;;;;8.10;3.50;;;;;;;;;;5028586;28;20053;-58
2022/06/26 04:10:45;;;;;;;4.93;3.35;;;;;;;;;;5013141;28;20061;-59
2022/06/26 04:13:13;;;;;;;5.65;3.50;;;;;;;;;;5029226;28;20050;-59
2022/06/26 04:15:39;;;;;;;3.75;2.83;;;;;;;;;;5034141;28;20110;-58
2022/06/26 04:18:06;;;;;;;5.68;3.20;;;;;;;;;;5032046;28;20046;-58
2022/06/26 04:20:33;;;;;;;6.93;3.35;;;;;;;;;;5026963;28;20042;-58
2022/06/26 04:23:00;;;;;;;7.15;3.35;;;;;;;;;;5033062;28;20045;-57
2022/06/26 04:25:27;;;;;;;5.90;3.13;;;;;;;;;;5027789;28;20049;-59
2022/06/26 04:27:53;;;;;;;4.75;3.35;;;;;;;;;;5029071;28;20041;-58
2022/06/26 04:30:20;;;;;;;5.15;2.75;;;;;;;;;;5029089;28;20055;-59
2022/06/26 04:32:46;;;;;;;4.78;2.65;;;;;;;;;;5027588;28;20095;-58
2022/06/26 04:35:12;;;;;;;4.80;2.72;;;;;;;;;;5031947;28;20045;-59
2022/06/26 04:37:38;;;;;;;5.47;3.40;;;;;;;;;;5027973;28;20089;-59
2022/06/26 04:40:06;;;;;;;4.18;3.10;;;;;;;;;;5032765;28;20045;-58
2022/06/26 04:42:32;;;;;;;5.32;2.80;;;;;;;;;;5027191;28;20037;-58
2022/06/26 04:44:58;;;;;;;3.53;2.85;;;;;;;;;;5029542;28;20080;-59
2022/06/26 04:47:25;;;;;;;5.07;3.10;;;;;;;;;;5028037;28;20041;-59
2022/06/26 04:49:51;;;;;;;6.30;3.60;;;;;;;;;;5027024;28;20096;-59
2022/06/26 04:52:17;;;;;;;5.68;3.15;;;;;;;;;;5030572;28;20037;-59
2022/06/26 04:54:44;;;;;;;6.40;3.35;;;;;;;;;;5023869;28;20080;-59
2022/06/26 04:57:10;;;;;;;4.47;3.20;;;;;;;;;;5028512;28;20064;-59
2022/06/26 04:59:36;;;;;;;4.80;3.30;;;;;;;;;;5028629;28;20128;-59
2022/06/26 05:02:03;;;;;;;8.82;3.80;;;;;;;;;;5027579;28;20483;-59
2022/06/26 05:04:29;;;;;;;6.63;3.85;;;;;;;;;;5027823;28;20112;-58
2022/06/26 05:06:55;;;;;;;5.28;4.03;;;;;;;;;;5025671;28;20077;-59
2022/06/26 05:09:22;;;;;;;6.15;4.40;;;;;;;;;;5025241;28;20506;-59
2022/06/26 05:11:48;;;;;;;8.82;4.32;;;;;;;;;;5022248;28;20051;-59
2022/06/26 05:14:15;;;;;;;8.45;4.63;;;;;;;;;;5025501;28;20083;-59
2022/06/26 05:16:41;;;;;;;6.43;4.10;;;;;;;;;;5025379;28;20037;-59
2022/06/26 05:19:07;;;;;;;8.40;4.75;;;;;;;;;;5025778;28;20088;-59
2022/06/26 05:21:34;;;;;;;6.25;4.60;;;;;;;;;;5025645;28;20052;-59
2022/06/26 05:24:00;;;;;;;6.45;4.70;;;;;;;;;;5007932;28;20127;-59
2022/06/26 05:26:26;;;;;;;8.43;5.30;;;;;;;;;;5006680;28;20406;-59
2022/06/26 05:28:52;;;;;;;8.05;5.72;;;;;;;;;;5025274;28;20046;-58
2022/06/26 05:31:19;;;;;;;7.22;6.10;;;;;;;;;;5026667;28;20124;-58
2022/06/26 05:33:45;;;;;;;10.18;5.72;;;;;;;;;;5025228;28;20052;-59
2022/06/26 05:36:12;;;;;;;13.45;6.95;;;;;;;;;;5025062;28;20038;-59
2022/06/26 05:38:38;;;;;;;11.60;7.10;;;;;;;;;;5024064;28;20609;-58
2022/06/26 05:41:05;;;;;;;11.38;7.00;;;;;;;;;;5024509;28;20518;-58
2022/06/26 05:43:31;;;;;;;12.73;7.05;;;;;;;;;;5024800;28;20112;-58
2022/06/26 05:45:58;;;;;;;8.23;6.10;;;;;;;;;;5024824;28;20690;-58
2022/06/26 05:48:24;;;;;;;11.23;6.47;;;;;;;;;;5024774;28;20090;-58
2022/06/26 05:50:51;;;;;;;9.90;6.40;;;;;;;;;;5025104;28;20052;-58
2022/06/26 05:53:18;;;;;;;9.35;6.88;;;;;;;;;;5024297;28;21942;-59
2022/06/26 05:55:44;;;;;;;11.57;7.07;;;;;;;;;;5021984;28;20765;-59
2022/06/26 05:58:11;;;;;;;11.80;7.15;;;;;;;;;;5022185;28;20068;-59
2022/06/26 06:00:37;;;;;;;10.18;7.00;;;;;;;;;;5023955;28;20046;-59
2022/06/26 06:03:04;;;;;;;13.52;7.80;;;;;;;;;;5020946;28;20103;-59
2022/06/26 06:05:30;;;;;;;11.95;7.63;;;;;;;;;;5021746;28;20041;-59
2022/06/26 06:07:56;;;;;;;13.00;7.90;;;;;;;;;;5020353;28;20133;-59
2022/06/26 06:10:24;;;;;;;18.63;8.95;;;;;;;;;;5018730;28;20034;-58
2022/06/26 06:12:51;;;;;;;15.57;8.98;;;;;;;;;;5014274;28;20092;-59
2022/06/26 06:15:17;;;;;;;20.60;10.20;;;;;;;;;;4999192;28;20038;-59
2022/06/26 06:17:44;;;;;;;18.02;9.50;;;;;;;;;;5001821;28;20500;-59
2022/06/26 06:20:12;;;;;;;14.75;10.00;;;;;;;;;;5021580;28;20099;-60
2022/06/26 06:22:39;;;;;;;14.43;9.88;;;;;;;;;;5017581;28;20064;-59
2022/06/26 06:25:06;;;;;;;17.63;10.27;;;;;;;;;;5017601;28;20136;-60
2022/06/26 06:27:32;;;;;;;12.93;9.68;;;;;;;;;;4998250;28;20041;-59
2022/06/26 06:29:58;;;;;;;15.30;9.82;;;;;;;;;;5015290;28;20045;-59
2022/06/26 06:32:25;;;;;;;17.15;10.57;;;;;;;;;;5018059;28;20095;-59
2022/06/26 06:34:51;;;;;;;13.57;10.38;;;;;;;;;;5021255;28;20131;-60
2022/06/26 06:37:17;;;;;;;18.63;10.10;;;;;;;;;;5002761;28;20041;-59
2022/06/26 06:39:44;;;;;;;18.20;10.65;;;;;;;;;;4996339;28;20056;-59
2022/06/26 06:42:11;;;;;;;16.63;10.75;;;;;;;;;;5012839;28;20050;-59
2022/06/26 06:44:37;;;;;;;20.30;11.38;;;;;;;;;;5007565;28;20057;-59
2022/06/26 06:47:03;;;;;;;16.38;11.55;;;;;;;;;;5012657;28;20069;-58
2022/06/26 06:49:30;;;;;;;17.58;11.77;;;;;;;;;;4999430;28;20057;-58
2022/06/26 06:51:56;;;;;;;16.48;11.30;;;;;;;;;;5019826;28;20073;-59
2022/06/26 06:54:22;;;;;;;16.05;11.70;;;;;;;;;;5021319;28;20132;-59
2022/06/26 06:56:48;;;;;;;19.50;12.40;;;;;;;;;;5020062;28;20045;-59
2022/06/26 06:59:14;;;;;;;20.15;13.13;;;;;;;;;;5019489;28;20088;-59
2022/06/26 07:01:41;;;;;;;19.67;13.23;;;;;;;;;;5014255;28;20081;-59
2022/06/26 07:04:07;;;;;;;17.27;12.18;;;;;;;;;;5018787;28;20053;-59
2022/06/26 07:06:34;;;;;;;22.40;13.43;;;;;;;;;;5019057;28;20085;-59
2022/06/26 07:09:00;;;;;;;23.30;14.68;;;;;;;;;;5021447;28;20542;-59
2022/06/26 07:11:26;;;;;;;23.80;13.82;;;;;;;;;;5018823;28;20487;-59
2022/06/26 07:13:53;;;;;;;23.70;14.15;;;;;;;;;;5000694;28;20047;-59
2022/06/26 07:16:19;;;;;;;22.80;14.77;;;;;;;;;;5020029;28;20503;-59
2022/06/26 07:18:45;;;;;;;19.88;14.50;;;;;;;;;;5020340;28;20480;-59
2022/06/26 07:21:11;;;;;;;24.75;16.63;;;;;;;;;;5017393;28;20499;-59
2022/06/26 07:23:37;;;;;;;25.27;15.27;;;;;;;;;;5021661;28;20053;-59
2022/06/26 07:26:04;;;;;;;20.42;13.77;;;;;;;;;;5022826;28;20523;-58
2022/06/26 07:28:30;;;;;;;22.17;14.93;;;;;;;;;;5005478;28;20099;-59
2022/06/26 07:30:56;;;;;;;22.17;14.73;;;;;;;;;;5021410;28;20495;-59
2022/06/26 07:36:07;;;;;;;21.73;14.25;;;;;;;;;;5022822;28;20061;-59
2022/06/26 07:38:33;;;;;;;21.73;15.25;;;;;;;;;;5022269;28;20045;-59
2022/06/26 07:40:59;;;;;;;20.45;13.77;;;;;;;;;;5021795;28;20132;-59
2022/06/26 07:43:25;;;;;;;22.15;15.18;;;;;;;;;;5021662;28;20736;-59
2022/06/26 07:45:51;;;;;;;22.10;14.88;;;;;;;;;;5021900;28;20666;-59
2022/06/26 07:48:17;;;;;;;25.70;15.35;;;;;;;;;;5021827;28;20053;-59
2022/06/26 07:50:44;;;;;;;23.23;15.40;;;;;;;;;;5022238;28;20056;-59
2022/06/26 07:53:10;;;;;;;21.38;14.95;;;;;;;;;;5022527;28;20597;-60
2022/06/26 07:55:36;;;;;;;20.85;13.80;;;;;;;;;;5003737;28;20065;-59
2022/06/26 07:58:02;;;;;;;23.20;15.00;;;;;;;;;;5022162;28;20103;-59
2022/06/26 08:00:29;;;;;;;19.88;15.07;;;;;;;;;;5021978;28;20511;-59
2022/06/26 08:02:55;;;;;;;19.85;13.63;;;;;;;;;;5022142;28;20052;-59
2022/06/26 08:05:21;;;;;;;19.75;14.00;;;;;;;;;;5021951;28;20054;-59
2022/06/26 08:07:47;;;;;;;20.13;13.75;;;;;;;;;;5026313;28;20037;-59
2022/06/26 08:10:13;;;;;;;20.77;13.77;;;;;;;;;;5041067;28;20160;-60
2022/06/26 08:12:39;;;;;;;20.73;12.40;;;;;;;;;;5041967;28;20109;-59
2022/06/26 08:15:06;;;;;;;16.48;11.75;;;;;;;;;;5026774;28;20049;-59
2022/06/26 08:17:32;;;;;;;15.32;10.55;;;;;;;;;;5004250;28;20416;-59
2022/06/26 08:19:58;;;;;;;16.00;10.85;;;;;;;;;;5019050;28;20348;-59
2022/06/26 08:22:24;;;;;;;13.63;9.93;;;;;;;;;;5018701;28;20108;-59
2022/06/26 08:24:50;;;;;;;14.50;9.57;;;;;;;;;;5018091;28;20148;-60
2022/06/26 08:27:17;;;;;;;14.07;9.43;;;;;;;;;;5002968;28;20048;-59
2022/06/26 08:29:43;;;;;;;13.30;9.20;;;;;;;;;;5020436;28;20136;-60
2022/06/26 08:32:09;;;;;;;14.25;9.25;;;;;;;;;;5022202;28;20084;-59
2022/06/26 08:34:35;;;;;;;12.35;8.80;;;;;;;;;;5022701;28;20045;-59
2022/06/26 08:37:01;;;;;;;8.57;6.45;;;;;;;;;;5004953;28;20045;-59
2022/06/26 08:39:27;;;;;;;8.88;6.82;;;;;;;;;;5021628;28;20069;-59
2022/06/26 08:41:54;;;;;;;10.15;6.25;;;;;;;;;;5023110;28;20084;-59
2022/06/26 08:44:21;;;;;;;8.85;6.55;;;;;;;;;;5018984;28;20100;-59
2022/06/26 08:46:48;;;;;;;12.17;7.80;;;;;;;;;;5021484;28;20454;-60
2022/06/26 08:49:15;;;;;;;8.77;7.45;;;;;;;;;;5021312;28;20045;-60
2022/06/26 08:51:43;;;;;;;9.23;5.87;;;;;;;;;;5022109;28;20491;-60
2022/06/26 08:54:10;;;;;;;10.23;7.22;;;;;;;;;;5021914;28;20494;-60
2022/06/26 08:56:38;;;;;;;8.50;6.05;;;;;;;;;;5021338;28;20376;-59
2022/06/26 08:59:04;;;;;;;;;;;;;;;;;;5022385;28;20515;-59
2022/06/26 09:01:30;;;;;;;6.90;6.10;;;;;;;;;;5020697;28;19971;-59
2022/06/26 09:03:56;;;;;;;7.57;5.25;;;;;;;;;;5022220;28;20045;-59
2022/06/26 09:06:22;;;;;;;6.90;4.55;;;;;;;;;;5021288;28;20734;-60
2022/06/26 09:08:49;;;;;;;7.35;3.92;;;;;;;;;;5022183;28;20131;-60
2022/06/26 09:11:16;;;;;;;6.45;4.43;;;;;;;;;;5020301;28;20163;-60
2022/06/26 09:13:43;;;;;;;5.07;3.78;;;;;;;;;;5021412;28;20061;-60
2022/06/26 09:16:10;;;;;;;8.23;4.73;;;;;;;;;;5021929;28;20434;-60
2022/06/26 09:18:37;;;;;;;6.18;4.30;;;;;;;;;;5020144;28;20303;-59
2022/06/26 09:21:05;;;;;;;10.32;4.60;;;;;;;;;;5017857;28;20045;-60
2022/06/26 09:23:32;;;;;;;8.40;5.95;;;;;;;;;;5020922;28;20034;-59
2022/06/26 09:25:59;;;;;;;7.80;5.28;;;;;;;;;;5002315;28;20095;-59
2022/06/26 09:28:25;;;;;;;7.78;5.00;;;;;;;;;;5019112;28;20053;-60
2022/06/26 09:30:58;;;;;;;5.55;4.78;;;;;;;;;;5020685;28;20052;-60
2022/06/26 09:33:25;;;;;;;7.03;4.35;;;;;;;;;;5019075;28;20072;-59
2022/06/26 09:35:51;;;;;;;6.43;3.43;;;;;;;;;;5002485;28;20132;-60
2022/06/26 09:38:19;;;;;;;4.85;3.33;;;;;;;;;;5018887;28;20052;-60
2022/06/26 09:40:46;;;;;;;5.53;3.20;;;;;;;;;;5020811;28;20049;-58
2022/06/26 09:43:15;;;;;;;6.82;3.75;;;;;;;;;;5020768;28;20088;-60
2022/06/26 09:45:41;;;;;;;5.70;3.90;;;;;;;;;;5019472;28;20041;-60
2022/06/26 09:48:10;;;;;;;9.80;4.10;;;;;;;;;;5020823;28;20025;-59
2022/06/26 09:50:36;;;;;;;6.38;4.10;;;;;;;;;;5021389;28;20049;-59
2022/06/26 09:53:02;;;;;;;4.43;3.65;;;;;;;;;;5020842;28;20425;-58
2022/06/26 09:55:30;;;;;;;8.20;3.80;;;;;;;;;;5019851;28;20048;-58
2022/06/26 09:57:56;;;;;;;4.65;3.00;;;;;;;;;;5020750;28;20069;-58
2022/06/26 10:00:22;;;;;;;4.47;3.30;;;;;;;;;;5020948;28;20087;-59
2022/06/26 10:08:20;;;;;;;5.60;3.40;;;;;;;;;;5018418;28;20053;-59
2022/06/26 10:10:48;;;;;;;4.53;2.65;;;;;;;;;;5021357;28;20052;-60
2022/06/26 10:13:14;;;;;;;3.70;2.58;;;;;;;;;;5024409;28;20049;-60
2022/06/26 10:15:53;;;;;;;4.45;2.25;;;;;;;;;;5023390;28;20088;-60
2022/06/26 10:18:34;;;;;;;5.47;2.40;;;;;;;;;;5019790;28;20079;-60
2022/06/26 10:21:08;;;;;;;3.83;2.22;;;;;;;;;;5021780;28;20045;-59
2022/06/26 10:23:35;;;;;;;4.70;2.40;;;;;;;;;;5021413;28;20041;-59
2022/06/26 10:26:11;;;;;;;4.10;1.73;;;;;;;;;;5023160;28;20044;-60
2022/06/26 10:28:37;;;;;;;3.83;2.30;;;;;;;;;;5021053;28;20131;-59
2022/06/26 10:31:09;;;;;;;4.78;2.22;;;;;;;;;;5021097;28;20060;-59
2022/06/26 10:33:35;;;;;;;4.60;2.80;;;;;;;;;;5019262;28;20103;-59
2022/06/26 10:36:02;;;;;;;6.00;2.72;;;;;;;;;;5018737;28;20037;-59
2022/06/26 10:38:29;;;;;;;4.00;2.40;;;;;;;;;;5018162;28;20049;-60
2022/06/26 10:44:02;;;;;;;3.55;2.13;;;;;;;;;;5019016;28;20042;-59
2022/06/26 10:46:36;;;;;;;3.78;2.08;;;;;;;;;;5019122;28;20562;-59
2022/06/26 10:49:05;;;;;;;5.13;2.45;;;;;;;;;;5020184;28;20100;-59
2022/06/26 10:51:31;;;;;;;5.82;2.70;;;;;;;;;;5021207;28;20052;-59
2022/06/26 10:53:57;;;;;;;6.82;2.80;;;;;;;;;;5023636;28;20786;-59
2022/06/26 10:56:23;;;;;;;10.35;2.80;;;;;;;;;;5021294;28;20045;-59
2022/06/26 10:58:49;;;;;;;4.40;2.92;;;;;;;;;;5022342;28;20132;-59
2022/06/26 11:01:18;;;;;;;5.10;2.33;;;;;;;;;;5023142;28;20050;-59
2022/06/26 11:03:45;;;;;;;5.70;2.67;;;;;;;;;;5022746;28;21030;-59
2022/06/26 11:06:12;;;;;;;7.05;2.53;;;;;;;;;;5026064;28;20057;-59
2022/06/26 11:08:40;;;;;;;4.35;1.88;;;;;;;;;;5023141;28;20076;-59
2022/06/26 11:11:08;;;;;;;4.63;2.05;;;;;;;;;;5001722;28;20055;-59
2022/06/26 11:13:36;;;;;;;4.57;2.30;;;;;;;;;;5016356;28;20119;-59
2022/06/26 11:16:03;;;;;;;7.32;2.10;;;;;;;;;;5004831;28;20050;-59
2022/06/26 11:18:34;;;;;;;2.70;1.55;;;;;;;;;;5019449;28;20409;-59
2022/06/26 11:21:01;;;;;;;4.72;2.08;;;;;;;;;;5025057;28;20045;-59
2022/06/26 11:23:29;;;;;;;6.57;2.03;;;;;;;;;;5021700;28;20052;-58
2022/06/26 11:26:03;;;;;;;6.28;2.28;;;;;;;;;;5021130;28;20056;-59
2022/06/26 11:28:31;;;;;;;7.90;2.40;;;;;;;;;;5020905;28;20057;-59
2022/06/26 11:30:58;;;;;;;7.38;1.88;;;;;;;;;;5003314;28;20045;-58
2022/06/26 11:33:25;;;;;;;4.53;2.28;;;;;;;;;;5021360;28;20050;-59
2022/06/26 11:35:52;;;;;;;4.13;1.70;;;;;;;;;;5020697;28;20038;-59
2022/06/26 11:38:18;;;;;;;5.18;1.95;;;;;;;;;;5020982;28;20545;-59
2022/06/26 11:40:45;;;;;;;5.72;2.20;;;;;;;;;;5020260;28;20086;-59
2022/06/26 11:43:12;;;;;;;8.63;2.42;;;;;;;;;;5018455;28;20128;-59
2022/06/26 11:45:40;;;;;;;5.63;2.30;;;;;;;;;;5005357;28;20553;-58
2022/06/26 11:48:08;;;;;;;6.13;3.13;;;;;;;;;;5022115;28;20057;-58
2022/06/26 11:50:36;;;;;;;4.70;2.15;;;;;;;;;;5019429;28;20042;-59
2022/06/26 11:53:03;;;;;;;7.95;2.50;;;;;;;;;;5022683;28;20072;-59
2022/06/26 11:55:30;;;;;;;6.72;2.08;;;;;;;;;;5020725;28;20391;-59
2022/06/26 11:57:56;;;;;;;5.53;2.60;;;;;;;;;;5022326;28;20045;-59
2022/06/26 12:00:23;;;;;;;4.30;2.20;;;;;;;;;;5022567;28;20061;-59
2022/06/26 12:02:49;;;;;;;7.45;2.90;;;;;;;;;;5025861;28;20041;-59
2022/06/26 12:05:20;;;;;;;4.38;2.00;;;;;;;;;;5024922;28;20503;-59
2022/06/26 12:07:48;;;;;;;4.68;2.10;;;;;;;;;;5027602;28;20037;-59
2022/06/26 12:10:24;;;;;;;5.10;2.10;;;;;;;;;;5024438;28;20044;-59
2022/06/26 12:12:51;;;;;;;10.07;1.90;;;;;;;;;;5025115;28;20045;-58
2022/06/26 12:15:18;;;;;;;4.55;2.10;;;;;;;;;;5024898;28;20061;-59
2022/06/26 12:17:51;;;;;;;5.53;2.50;;;;;;;;;;5025657;28;20075;-59
2022/06/26 12:20:17;;;;;;;6.95;2.33;;;;;;;;;;5025128;28;20052;-58
2022/06/26 12:22:48;;;;;;;5.18;2.47;;;;;;;;;;5025443;28;20045;-58
2022/06/26 12:25:24;;;;;;;4.93;2.25;;;;;;;;;;5006646;28;20052;-59
2022/06/26 12:27:51;;;;;;;5.75;2.80;;;;;;;;;;5025085;28;20043;-59
2022/06/26 12:30:18;;;;;;;4.63;2.73;;;;;;;;;;5025199;28;20060;-59
2022/06/26 12:32:44;;;;;;;5.90;2.88;;;;;;;;;;5025141;28;20179;-58
2022/06/26 12:35:10;;;;;;;5.80;2.67;;;;;;;;;;5024819;28;20052;-59
2022/06/26 12:37:37;;;;;;;5.00;2.60;;;;;;;;;;5024916;28;20090;-59
2022/06/26 12:40:04;;;;;;;5.05;2.60;;;;;;;;;;5024596;28;20049;-59
2022/06/26 12:42:30;;;;;;;6.47;2.90;;;;;;;;;;5024952;28;20045;-58
2022/06/26 12:44:57;;;;;;;10.75;3.10;;;;;;;;;;5024555;28;20402;-59
2022/06/26 12:47:23;;;;;;;7.15;2.95;;;;;;;;;;5024877;28;20049;-58
2022/06/26 12:49:49;;;;;;;6.75;3.00;;;;;;;;;;5024823;28;20060;-59
2022/06/26 12:52:15;;;;;;;9.48;2.95;;;;;;;;;;5023832;28;20041;-59
2022/06/26 12:54:42;;;;;;;7.85;3.35;;;;;;;;;;5024209;28;20076;-59
2022/06/26 12:57:08;;;;;;;3.90;2.30;;;;;;;;;;5024224;28;20081;-59
2022/06/26 12:59:34;;;;;;;9.80;3.53;;;;;;;;;;5024163;28;20045;-58
2022/06/26 13:02:00;;;;;;;7.05;2.88;;;;;;;;;;5022292;28;20045;-59
2022/06/26 13:04:26;;;;;;;6.70;3.03;;;;;;;;;;5019363;28;20049;-58
2022/06/26 13:06:53;;;;;;;11.82;3.17;;;;;;;;;;5025920;28;20091;-58
2022/06/26 13:09:19;;;;;;;10.15;3.42;;;;;;;;;;5025648;28;20045;-58
2022/06/26 13:11:45;;;;;;;6.50;2.90;;;;;;;;;;5025614;28;20044;-58
2022/06/26 13:14:11;;;;;;;6.50;2.63;;;;;;;;;;5026481;28;20056;-59
2022/06/26 13:16:38;;;;;;;8.73;2.85;;;;;;;;;;5027336;28;20042;-58
2022/06/26 13:19:04;;;;;;;12.60;2.65;;;;;;;;;;5026538;28;20205;-58
2022/06/26 13:21:31;;;;;;;4.53;2.40;;;;;;;;;;5026086;28;20045;-58
2022/06/26 13:23:57;;;;;;;6.13;3.20;;;;;;;;;;5025727;28;20380;-59
2022/06/26 13:26:23;;;;;;;5.57;2.40;;;;;;;;;;5026377;28;20488;-58
2022/06/26 13:28:49;;;;;;;6.28;2.72;;;;;;;;;;5026511;28;20133;-59
2022/06/26 13:31:16;;;;;;;10.27;2.80;;;;;;;;;;5026375;28;20056;-58
2022/06/26 13:33:42;;;;;;;11.65;3.13;;;;;;;;;;5026000;28;20045;-58
2022/06/26 13:36:08;;;;;;;5.57;2.60;;;;;;;;;;5026816;28;20037;-58
2022/06/26 13:38:34;;;;;;;5.70;2.95;;;;;;;;;;5026334;28;20041;-58
2022/06/26 13:41:01;;;;;;;2.92;2.33;;;;;;;;;;5025695;28;20076;-58
2022/06/26 13:43:27;;;;;;;9.07;2.72;;;;;;;;;;5026134;28;20115;-59
2022/06/26 13:45:53;;;;;;;6.78;3.20;;;;;;;;;;5026473;28;20030;-59
2022/06/26 13:48:19;;;;;;;5.78;2.90;;;;;;;;;;5025255;28;20052;-58
2022/06/26 13:50:46;;;;;;;7.15;3.42;;;;;;;;;;5026404;28;20045;-58
2022/06/26 13:53:12;;;;;;;5.53;2.75;;;;;;;;;;5026090;28;20136;-58
2022/06/26 13:55:38;;;;;;;6.43;3.25;;;;;;;;;;5025971;28;20081;-58
2022/06/26 13:58:04;;;;;;;8.65;3.70;;;;;;;;;;5026207;28;20045;-58
2022/06/26 14:00:30;;;;;;;8.18;3.97;;;;;;;;;;5025556;28;20072;-57
2022/06/26 14:02:56;;;;;;;8.10;3.83;;;;;;;;;;5025750;28;20153;-58
2022/06/26 14:05:23;;;;;;;5.85;3.50;;;;;;;;;;5025813;28;20052;-58
2022/06/26 14:07:50;;;;;;;9.73;3.80;;;;;;;;;;5030241;28;20037;-58
2022/06/26 14:10:17;;;;;;;7.20;3.60;;;;;;;;;;5045443;28;20053;-58
2022/06/26 14:12:43;;;;;;;4.70;2.80;;;;;;;;;;5045628;28;20064;-59
2022/06/26 14:15:09;;;;;;;4.97;2.97;;;;;;;;;;5045629;28;20107;-58
2022/06/26 14:17:40;;;;;;;5.85;2.63;;;;;;;;;;5045887;28;20084;-58
2022/06/26 14:20:07;;;;;;;5.00;3.47;;;;;;;;;;5046137;28;20045;-58
2022/06/26 14:28:02;;;;;;;7.18;1.98;;;;;;;;;;5045051;28;21077;-58
2022/06/26 14:30:29;;;;;;;3.10;1.85;;;;;;;;;;5045325;28;20040;-58
2022/06/26 14:32:55;;;;;;;5.40;2.00;;;;;;;;;;5045399;28;20081;-59
2022/06/26 14:35:21;;;;;;;3.17;2.20;;;;;;;;;;5044820;28;20114;-58
2022/06/26 14:37:48;;;;;;;4.00;2.40;;;;;;;;;;5045156;28;20036;-59
2022/06/26 14:40:14;;;;;;;4.63;2.10;;;;;;;;;;5032377;28;20122;-59
2022/06/26 14:42:46;;;;;;;6.15;2.38;;;;;;;;;;5003445;28;20692;-58
2022/06/26 14:45:15;;;;;;;7.15;1.90;;;;;;;;;;5008829;28;20055;-60
2022/06/26 14:47:41;;;;;;;3.78;1.73;;;;;;;;;;5021422;28;20532;-59
2022/06/26 14:50:09;;;;;;;4.90;1.80;;;;;;;;;;5021563;28;20053;-59
2022/06/26 14:52:36;;;;;;;7.35;2.17;;;;;;;;;;5022786;28;20041;-59